sensor_id;sensor_type;location;lat;lon;timestamp;temperature;humidity
4530;DHT22;2277;51.626;7.516;2023-05-07T00:00:33;17.60;99.90
4530;DHT22;2277;51.626;7.516;2023-05-07T00:02:59;17.60;99.90
4530;DHT22;2277;51.626;7.516;2023-05-07T00:05:25;17.60;99.90
4530;DHT22;2277;51.626;7.516;2023-05-07T00:07:51;17.50;99.90
4530;DHT22;2277;51.626;7.516;2023-05-07T00:10:18;17.60;99.90
4530;DHT22;2277;51.626;7.516;2023-05-07T00:12:44;17.50;99.90
4530;DHT22;2277;51.626;7.516;2023-05-07T00:15:09;17.60;99.90
4530;DHT22;2277;51.626;7.516;2023-05-07T00:17:36;17.60;99.90
4530;DHT22;2277;51.626;7.516;2023-05-07T00:20:02;17.60;99.90
4530;DHT22;2277;51.626;7.516;2023-05-07T00:22:29;17.50;99.90
4530;DHT22;2277;51.626;7.516;2023-05-07T00:24:55;17.60;99.90
4530;DHT22;2277;51.626;7.516;2023-05-07T00:27:21;17.50;99.90
4530;DHT22;2277;51.626;7.516;2023-05-07T00:29:47;17.60;99.90
4530;DHT22;2277;51.626;7.516;2023-05-07T00:32:12;17.50;99.90
4530;DHT22;2277;51.626;7.516;2023-05-07T00:34:38;17.50;99.90
4530;DHT22;2277;51.626;7.516;2023-05-07T00:37:05;17.50;99.90
4530;DHT22;2277;51.626;7.516;2023-05-07T00:39:33;17.50;99.90
4530;DHT22;2277;51.626;7.516;2023-05-07T00:41:58;17.50;99.90
4530;DHT22;2277;51.626;7.516;2023-05-07T00:44:24;17.50;99.90
4530;DHT22;2277;51.626;7.516;2023-05-07T00:46:50;17.40;99.90
4530;DHT22;2277;51.626;7.516;2023-05-07T00:49:16;17.40;99.90
4530;DHT22;2277;51.626;7.516;2023-05-07T00:51:42;17.40;99.90
4530;DHT22;2277;51.626;7.516;2023-05-07T00:54:08;17.40;99.90
4530;DHT22;2277;51.626;7.516;2023-05-07T00:56:34;17.40;99.90
4530;DHT22;2277;51.626;7.516;2023-05-07T00:59:02;17.50;99.90
4530;DHT22;2277;51.626;7.516;2023-05-07T01:01:28;17.50;99.90
4530;DHT22;2277;51.626;7.516;2023-05-07T01:03:53;17.40;99.90
4530;DHT22;2277;51.626;7.516;2023-05-07T01:06:20;17.40;99.90
4530;DHT22;2277;51.626;7.516;2023-05-07T01:08:47;17.50;99.90
4530;DHT22;2277;51.626;7.516;2023-05-07T01:11:14;17.40;99.90
4530;DHT22;2277;51.626;7.516;2023-05-07T01:13:40;17.50;99.90
4530;DHT22;2277;51.626;7.516;2023-05-07T01:16:07;17.50;99.90
4530;DHT22;2277;51.626;7.516;2023-05-07T01:18:33;17.40;99.90
4530;DHT22;2277;51.626;7.516;2023-05-07T01:21:02;17.40;99.90
4530;DHT22;2277;51.626;7.516;2023-05-07T01:23:29;17.40;99.90
4530;DHT22;2277;51.626;7.516;2023-05-07T01:25:56;17.30;99.90
4530;DHT22;2277;51.626;7.516;2023-05-07T01:28:22;17.40;99.90
4530;DHT22;2277;51.626;7.516;2023-05-07T01:30:51;17.30;99.90
4530;DHT22;2277;51.626;7.516;2023-05-07T01:33:20;17.40;99.90
4530;DHT22;2277;51.626;7.516;2023-05-07T01:35:50;17.30;99.90
4530;DHT22;2277;51.626;7.516;2023-05-07T01:38:17;17.30;99.90
4530;DHT22;2277;51.626;7.516;2023-05-07T01:40:43;17.30;99.90
4530;DHT22;2277;51.626;7.516;2023-05-07T01:43:09;17.30;99.90
4530;DHT22;2277;51.626;7.516;2023-05-07T01:45:35;17.40;99.90
4530;DHT22;2277;51.626;7.516;2023-05-07T01:48:02;17.30;99.90
4530;DHT22;2277;51.626;7.516;2023-05-07T01:50:28;17.30;99.90
4530;DHT22;2277;51.626;7.516;2023-05-07T01:52:54;17.30;99.90
4530;DHT22;2277;51.626;7.516;2023-05-07T01:55:19;17.30;99.90
4530;DHT22;2277;51.626;7.516;2023-05-07T01:57:45;17.30;99.90
4530;DHT22;2277;51.626;7.516;2023-05-07T02:00:11;17.30;99.90
4530;DHT22;2277;51.626;7.516;2023-05-07T02:02:37;17.30;99.90
4530;DHT22;2277;51.626;7.516;2023-05-07T02:05:03;17.30;99.90
4530;DHT22;2277;51.626;7.516;2023-05-07T02:07:29;17.30;99.90
4530;DHT22;2277;51.626;7.516;2023-05-07T02:09:55;17.20;99.90
4530;DHT22;2277;51.626;7.516;2023-05-07T02:12:21;17.10;99.90
4530;DHT22;2277;51.626;7.516;2023-05-07T02:14:47;17.20;99.90
4530;DHT22;2277;51.626;7.516;2023-05-07T02:17:13;17.20;99.90
4530;DHT22;2277;51.626;7.516;2023-05-07T02:19:38;17.20;99.90
4530;DHT22;2277;51.626;7.516;2023-05-07T02:22:04;17.20;99.90
4530;DHT22;2277;51.626;7.516;2023-05-07T02:24:29;17.20;99.90
4530;DHT22;2277;51.626;7.516;2023-05-07T02:26:55;17.20;99.90
4530;DHT22;2277;51.626;7.516;2023-05-07T02:29:21;17.20;99.90
4530;DHT22;2277;51.626;7.516;2023-05-07T02:31:46;17.10;99.90
4530;DHT22;2277;51.626;7.516;2023-05-07T02:34:16;17.20;99.90
4530;DHT22;2277;51.626;7.516;2023-05-07T02:36:42;17.10;99.90
4530;DHT22;2277;51.626;7.516;2023-05-07T02:39:07;17.10;99.90
4530;DHT22;2277;51.626;7.516;2023-05-07T02:41:33;17.10;99.90
4530;DHT22;2277;51.626;7.516;2023-05-07T02:43:58;17.10;99.90
4530;DHT22;2277;51.626;7.516;2023-05-07T02:46:24;17.10;99.90
4530;DHT22;2277;51.626;7.516;2023-05-07T02:48:50;17.10;99.90
4530;DHT22;2277;51.626;7.516;2023-05-07T02:51:20;17.10;99.90
4530;DHT22;2277;51.626;7.516;2023-05-07T02:53:45;17.10;99.90
4530;DHT22;2277;51.626;7.516;2023-05-07T02:56:11;17.00;99.90
4530;DHT22;2277;51.626;7.516;2023-05-07T02:58:37;17.00;99.90
4530;DHT22;2277;51.626;7.516;2023-05-07T03:01:05;17.00;99.90
4530;DHT22;2277;51.626;7.516;2023-05-07T03:03:31;17.00;99.90
4530;DHT22;2277;51.626;7.516;2023-05-07T03:05:56;17.00;99.90
4530;DHT22;2277;51.626;7.516;2023-05-07T03:08:22;17.00;99.90
4530;DHT22;2277;51.626;7.516;2023-05-07T03:10:48;17.00;99.90
4530;DHT22;2277;51.626;7.516;2023-05-07T03:13:13;17.00;99.90
4530;DHT22;2277;51.626;7.516;2023-05-07T03:15:39;17.00;99.90
4530;DHT22;2277;51.626;7.516;2023-05-07T03:18:05;17.00;99.90
4530;DHT22;2277;51.626;7.516;2023-05-07T03:20:30;17.00;99.90
4530;DHT22;2277;51.626;7.516;2023-05-07T03:22:56;16.90;99.90
4530;DHT22;2277;51.626;7.516;2023-05-07T03:25:22;16.90;99.90
4530;DHT22;2277;51.626;7.516;2023-05-07T03:27:47;16.90;99.90
4530;DHT22;2277;51.626;7.516;2023-05-07T03:30:13;16.80;99.90
4530;DHT22;2277;51.626;7.516;2023-05-07T03:32:38;16.80;99.90
4530;DHT22;2277;51.626;7.516;2023-05-07T03:35:04;16.70;99.90
4530;DHT22;2277;51.626;7.516;2023-05-07T03:37:30;16.70;99.90
4530;DHT22;2277;51.626;7.516;2023-05-07T03:39:56;16.70;99.90
4530;DHT22;2277;51.626;7.516;2023-05-07T03:42:21;16.70;99.90
4530;DHT22;2277;51.626;7.516;2023-05-07T03:44:47;16.70;99.90
4530;DHT22;2277;51.626;7.516;2023-05-07T03:47:12;16.70;99.90
4530;DHT22;2277;51.626;7.516;2023-05-07T03:49:39;16.70;99.90
4530;DHT22;2277;51.626;7.516;2023-05-07T03:52:05;16.60;99.90
4530;DHT22;2277;51.626;7.516;2023-05-07T03:54:31;16.60;99.90
4530;DHT22;2277;51.626;7.516;2023-05-07T03:56:56;16.40;99.90
4530;DHT22;2277;51.626;7.516;2023-05-07T03:59:22;16.30;99.90
4530;DHT22;2277;51.626;7.516;2023-05-07T04:01:48;16.20;99.90
4530;DHT22;2277;51.626;7.516;2023-05-07T04:04:14;16.30;99.90
4530;DHT22;2277;51.626;7.516;2023-05-07T04:06:40;16.30;99.90
4530;DHT22;2277;51.626;7.516;2023-05-07T04:09:06;16.40;99.90
4530;DHT22;2277;51.626;7.516;2023-05-07T04:11:32;16.40;99.90
4530;DHT22;2277;51.626;7.516;2023-05-07T04:13:57;16.40;99.90
4530;DHT22;2277;51.626;7.516;2023-05-07T04:16:23;16.30;99.90
4530;DHT22;2277;51.626;7.516;2023-05-07T04:18:49;16.20;99.90
4530;DHT22;2277;51.626;7.516;2023-05-07T04:21:19;16.20;99.90
4530;DHT22;2277;51.626;7.516;2023-05-07T04:23:46;16.20;99.90
4530;DHT22;2277;51.626;7.516;2023-05-07T04:26:12;16.30;99.90
4530;DHT22;2277;51.626;7.516;2023-05-07T04:28:38;16.30;99.90
4530;DHT22;2277;51.626;7.516;2023-05-07T04:31:04;16.40;99.90
4530;DHT22;2277;51.626;7.516;2023-05-07T04:33:31;16.40;99.90
4530;DHT22;2277;51.626;7.516;2023-05-07T04:35:57;16.50;99.90
4530;DHT22;2277;51.626;7.516;2023-05-07T04:38:22;16.50;99.90
4530;DHT22;2277;51.626;7.516;2023-05-07T04:40:49;16.40;99.90
4530;DHT22;2277;51.626;7.516;2023-05-07T04:43:14;16.30;99.90
4530;DHT22;2277;51.626;7.516;2023-05-07T04:45:41;16.20;99.90
4530;DHT22;2277;51.626;7.516;2023-05-07T04:48:08;16.30;99.90
4530;DHT22;2277;51.626;7.516;2023-05-07T04:50:33;16.30;99.90
4530;DHT22;2277;51.626;7.516;2023-05-07T04:52:59;16.30;99.90
4530;DHT22;2277;51.626;7.516;2023-05-07T04:55:25;16.30;99.90
4530;DHT22;2277;51.626;7.516;2023-05-07T04:57:51;16.30;99.90
4530;DHT22;2277;51.626;7.516;2023-05-07T05:00:17;16.40;99.90
4530;DHT22;2277;51.626;7.516;2023-05-07T05:02:45;16.30;99.90
4530;DHT22;2277;51.626;7.516;2023-05-07T05:05:10;16.20;99.90
4530;DHT22;2277;51.626;7.516;2023-05-07T05:07:36;16.10;99.90
4530;DHT22;2277;51.626;7.516;2023-05-07T05:10:03;16.10;99.90
4530;DHT22;2277;51.626;7.516;2023-05-07T05:12:29;16.10;99.90
4530;DHT22;2277;51.626;7.516;2023-05-07T05:14:55;16.10;99.90
4530;DHT22;2277;51.626;7.516;2023-05-07T05:17:21;16.20;99.90
4530;DHT22;2277;51.626;7.516;2023-05-07T05:19:46;16.30;99.90
4530;DHT22;2277;51.626;7.516;2023-05-07T05:22:12;16.20;99.90
4530;DHT22;2277;51.626;7.516;2023-05-07T05:24:38;16.00;99.90
4530;DHT22;2277;51.626;7.516;2023-05-07T05:27:04;16.00;99.90
4530;DHT22;2277;51.626;7.516;2023-05-07T05:29:29;15.90;99.90
4530;DHT22;2277;51.626;7.516;2023-05-07T05:31:56;15.80;99.90
4530;DHT22;2277;51.626;7.516;2023-05-07T05:34:22;15.80;99.90
4530;DHT22;2277;51.626;7.516;2023-05-07T05:36:48;15.80;99.90
4530;DHT22;2277;51.626;7.516;2023-05-07T05:39:14;15.70;99.90
4530;DHT22;2277;51.626;7.516;2023-05-07T05:41:39;15.70;99.90
4530;DHT22;2277;51.626;7.516;2023-05-07T05:44:05;15.70;99.90
4530;DHT22;2277;51.626;7.516;2023-05-07T05:46:31;15.60;99.90
4530;DHT22;2277;51.626;7.516;2023-05-07T05:48:56;15.60;99.90
4530;DHT22;2277;51.626;7.516;2023-05-07T05:51:22;15.70;99.90
4530;DHT22;2277;51.626;7.516;2023-05-07T05:53:48;15.70;99.90
4530;DHT22;2277;51.626;7.516;2023-05-07T05:56:15;15.70;99.90
4530;DHT22;2277;51.626;7.516;2023-05-07T05:58:40;15.80;99.90
4530;DHT22;2277;51.626;7.516;2023-05-07T06:01:06;15.90;99.90
4530;DHT22;2277;51.626;7.516;2023-05-07T06:03:32;16.00;99.90
4530;DHT22;2277;51.626;7.516;2023-05-07T06:05:58;16.10;99.90
4530;DHT22;2277;51.626;7.516;2023-05-07T06:08:23;16.10;99.90
4530;DHT22;2277;51.626;7.516;2023-05-07T06:10:49;16.30;99.90
4530;DHT22;2277;51.626;7.516;2023-05-07T06:13:15;16.30;99.90
4530;DHT22;2277;51.626;7.516;2023-05-07T06:15:40;16.30;99.90
4530;DHT22;2277;51.626;7.516;2023-05-07T06:18:06;16.30;99.90
4530;DHT22;2277;51.626;7.516;2023-05-07T06:20:31;16.50;99.90
4530;DHT22;2277;51.626;7.516;2023-05-07T06:22:57;16.50;99.90
4530;DHT22;2277;51.626;7.516;2023-05-07T06:25:23;16.60;99.90
4530;DHT22;2277;51.626;7.516;2023-05-07T06:27:48;16.70;99.90
4530;DHT22;2277;51.626;7.516;2023-05-07T06:30:14;16.60;99.90
4530;DHT22;2277;51.626;7.516;2023-05-07T06:32:40;16.50;99.90
4530;DHT22;2277;51.626;7.516;2023-05-07T06:35:06;16.60;99.90
4530;DHT22;2277;51.626;7.516;2023-05-07T06:37:31;16.50;99.90
4530;DHT22;2277;51.626;7.516;2023-05-07T06:39:57;16.60;99.90
4530;DHT22;2277;51.626;7.516;2023-05-07T06:42:23;16.60;99.90
4530;DHT22;2277;51.626;7.516;2023-05-07T06:44:48;16.60;99.90
4530;DHT22;2277;51.626;7.516;2023-05-07T06:47:14;16.60;99.90
4530;DHT22;2277;51.626;7.516;2023-05-07T06:49:39;16.50;99.90
4530;DHT22;2277;51.626;7.516;2023-05-07T06:52:05;16.60;99.90
4530;DHT22;2277;51.626;7.516;2023-05-07T06:54:31;16.50;99.90
4530;DHT22;2277;51.626;7.516;2023-05-07T06:56:56;16.70;99.90
4530;DHT22;2277;51.626;7.516;2023-05-07T06:59:23;16.90;99.90
4530;DHT22;2277;51.626;7.516;2023-05-07T07:01:48;17.00;99.90
4530;DHT22;2277;51.626;7.516;2023-05-07T07:04:14;17.10;99.90
4530;DHT22;2277;51.626;7.516;2023-05-07T07:06:40;17.20;99.90
4530;DHT22;2277;51.626;7.516;2023-05-07T07:09:05;17.10;99.90
4530;DHT22;2277;51.626;7.516;2023-05-07T07:11:31;17.00;99.90
4530;DHT22;2277;51.626;7.516;2023-05-07T07:13:56;17.00;99.90
4530;DHT22;2277;51.626;7.516;2023-05-07T07:16:22;17.00;99.90
4530;DHT22;2277;51.626;7.516;2023-05-07T07:18:48;17.20;99.90
4530;DHT22;2277;51.626;7.516;2023-05-07T07:21:13;17.20;99.90
4530;DHT22;2277;51.626;7.516;2023-05-07T07:23:39;17.30;99.90
4530;DHT22;2277;51.626;7.516;2023-05-07T07:26:04;17.40;99.90
4530;DHT22;2277;51.626;7.516;2023-05-07T07:28:31;17.40;99.90
4530;DHT22;2277;51.626;7.516;2023-05-07T07:30:57;17.50;99.90
4530;DHT22;2277;51.626;7.516;2023-05-07T07:33:23;17.50;99.90
4530;DHT22;2277;51.626;7.516;2023-05-07T07:35:48;17.50;99.90
4530;DHT22;2277;51.626;7.516;2023-05-07T07:38:14;17.40;99.90
4530;DHT22;2277;51.626;7.516;2023-05-07T07:40:39;17.50;99.90
4530;DHT22;2277;51.626;7.516;2023-05-07T07:43:05;17.50;99.90
4530;DHT22;2277;51.626;7.516;2023-05-07T07:45:31;17.40;99.90
4530;DHT22;2277;51.626;7.516;2023-05-07T07:47:57;17.30;99.90
4530;DHT22;2277;51.626;7.516;2023-05-07T07:50:22;17.20;99.90
4530;DHT22;2277;51.626;7.516;2023-05-07T07:52:48;17.30;99.90
4530;DHT22;2277;51.626;7.516;2023-05-07T07:55:14;17.40;99.90
4530;DHT22;2277;51.626;7.516;2023-05-07T07:57:43;17.40;99.90
4530;DHT22;2277;51.626;7.516;2023-05-07T08:00:09;17.60;99.90
4530;DHT22;2277;51.626;7.516;2023-05-07T08:02:35;17.80;99.90
4530;DHT22;2277;51.626;7.516;2023-05-07T08:05:00;18.00;99.90
4530;DHT22;2277;51.626;7.516;2023-05-07T08:07:26;18.20;99.90
4530;DHT22;2277;51.626;7.516;2023-05-07T08:09:51;18.20;99.90
4530;DHT22;2277;51.626;7.516;2023-05-07T08:12:17;18.30;99.90
4530;DHT22;2277;51.626;7.516;2023-05-07T08:14:43;18.50;99.90
4530;DHT22;2277;51.626;7.516;2023-05-07T08:17:09;18.70;99.90
4530;DHT22;2277;51.626;7.516;2023-05-07T08:19:35;18.90;99.90
4530;DHT22;2277;51.626;7.516;2023-05-07T08:22:02;19.00;99.90
4530;DHT22;2277;51.626;7.516;2023-05-07T08:24:27;19.30;99.90
4530;DHT22;2277;51.626;7.516;2023-05-07T08:26:53;19.50;99.90
4530;DHT22;2277;51.626;7.516;2023-05-07T08:29:18;19.70;99.90
4530;DHT22;2277;51.626;7.516;2023-05-07T08:31:44;20.00;99.90
4530;DHT22;2277;51.626;7.516;2023-05-07T08:34:09;20.20;99.90
4530;DHT22;2277;51.626;7.516;2023-05-07T08:36:35;20.20;99.90
4530;DHT22;2277;51.626;7.516;2023-05-07T08:39:00;20.30;99.90
4530;DHT22;2277;51.626;7.516;2023-05-07T08:41:26;20.60;99.90
4530;DHT22;2277;51.626;7.516;2023-05-07T08:43:52;20.60;99.90
4530;DHT22;2277;51.626;7.516;2023-05-07T08:46:20;20.80;99.90
4530;DHT22;2277;51.626;7.516;2023-05-07T08:48:49;20.90;99.90
4530;DHT22;2277;51.626;7.516;2023-05-07T08:51:18;20.70;99.90
4530;DHT22;2277;51.626;7.516;2023-05-07T08:53:45;20.80;99.90
4530;DHT22;2277;51.626;7.516;2023-05-07T08:56:11;20.80;99.90
4530;DHT22;2277;51.626;7.516;2023-05-07T08:58:37;20.50;99.90
4530;DHT22;2277;51.626;7.516;2023-05-07T09:01:14;20.50;99.90
4530;DHT22;2277;51.626;7.516;2023-05-07T09:03:40;20.40;99.90
4530;DHT22;2277;51.626;7.516;2023-05-07T09:06:06;20.40;99.90
4530;DHT22;2277;51.626;7.516;2023-05-07T09:08:35;20.30;99.90
4530;DHT22;2277;51.626;7.516;2023-05-07T09:11:02;20.40;99.90
4530;DHT22;2277;51.626;7.516;2023-05-07T09:13:28;20.50;99.90
4530;DHT22;2277;51.626;7.516;2023-05-07T09:15:54;20.70;99.90
4530;DHT22;2277;51.626;7.516;2023-05-07T09:18:19;20.90;99.90
4530;DHT22;2277;51.626;7.516;2023-05-07T09:20:45;20.90;99.90
4530;DHT22;2277;51.626;7.516;2023-05-07T09:23:10;20.80;99.90
4530;DHT22;2277;51.626;7.516;2023-05-07T09:25:36;20.70;99.90
4530;DHT22;2277;51.626;7.516;2023-05-07T09:28:04;20.70;99.90
4530;DHT22;2277;51.626;7.516;2023-05-07T09:30:31;20.80;99.90
4530;DHT22;2277;51.626;7.516;2023-05-07T09:33:01;20.80;99.90
4530;DHT22;2277;51.626;7.516;2023-05-07T09:35:27;21.00;99.90
4530;DHT22;2277;51.626;7.516;2023-05-07T09:37:54;21.20;99.90
4530;DHT22;2277;51.626;7.516;2023-05-07T09:40:22;20.90;99.90
4530;DHT22;2277;51.626;7.516;2023-05-07T09:42:49;21.00;99.90
4530;DHT22;2277;51.626;7.516;2023-05-07T09:45:16;21.00;99.90
4530;DHT22;2277;51.626;7.516;2023-05-07T09:47:43;21.30;99.90
4530;DHT22;2277;51.626;7.516;2023-05-07T09:50:12;21.40;99.90
4530;DHT22;2277;51.626;7.516;2023-05-07T09:52:40;21.50;99.90
4530;DHT22;2277;51.626;7.516;2023-05-07T09:55:07;21.30;99.90
4530;DHT22;2277;51.626;7.516;2023-05-07T09:57:34;21.40;99.90
4530;DHT22;2277;51.626;7.516;2023-05-07T10:00:02;21.40;99.90
4530;DHT22;2277;51.626;7.516;2023-05-07T10:02:30;21.40;99.90
4530;DHT22;2277;51.626;7.516;2023-05-07T10:04:57;21.90;99.90
4530;DHT22;2277;51.626;7.516;2023-05-07T10:07:25;22.20;99.90
4530;DHT22;2277;51.626;7.516;2023-05-07T10:09:52;22.30;99.90
4530;DHT22;2277;51.626;7.516;2023-05-07T10:12:18;22.30;99.90
4530;DHT22;2277;51.626;7.516;2023-05-07T10:14:45;22.50;99.90
4530;DHT22;2277;51.626;7.516;2023-05-07T10:17:12;22.50;99.90
4530;DHT22;2277;51.626;7.516;2023-05-07T10:19:38;22.70;99.90
4530;DHT22;2277;51.626;7.516;2023-05-07T10:22:05;23.00;99.90
4530;DHT22;2277;51.626;7.516;2023-05-07T10:24:36;23.00;99.90
4530;DHT22;2277;51.626;7.516;2023-05-07T10:27:06;23.40;99.90
4530;DHT22;2277;51.626;7.516;2023-05-07T10:29:44;23.90;99.90
4530;DHT22;2277;51.626;7.516;2023-05-07T10:32:35;24.10;99.90
4530;DHT22;2277;51.626;7.516;2023-05-07T10:35:04;24.50;99.90
4530;DHT22;2277;51.626;7.516;2023-05-07T10:37:32;24.80;99.90
4530;DHT22;2277;51.626;7.516;2023-05-07T10:39:58;25.10;99.90
4530;DHT22;2277;51.626;7.516;2023-05-07T10:42:24;25.30;99.90
4530;DHT22;2277;51.626;7.516;2023-05-07T10:44:49;25.60;99.90
4530;DHT22;2277;51.626;7.516;2023-05-07T10:47:16;25.70;99.90
4530;DHT22;2277;51.626;7.516;2023-05-07T10:52:20;26.10;99.90
4530;DHT22;2277;51.626;7.516;2023-05-07T10:54:46;25.90;99.90
4530;DHT22;2277;51.626;7.516;2023-05-07T10:57:34;26.20;99.90
4530;DHT22;2277;51.626;7.516;2023-05-07T11:00:40;26.20;99.90
4530;DHT22;2277;51.626;7.516;2023-05-07T11:05:32;26.30;99.90
4530;DHT22;2277;51.626;7.516;2023-05-07T11:08:02;25.90;99.90
4530;DHT22;2277;51.626;7.516;2023-05-07T11:13:16;26.20;99.90
4530;DHT22;2277;51.626;7.516;2023-05-07T11:15:46;26.30;99.90
4530;DHT22;2277;51.626;7.516;2023-05-07T11:18:14;26.40;99.90
4530;DHT22;2277;51.626;7.516;2023-05-07T11:20:57;26.20;99.90
4530;DHT22;2277;51.626;7.516;2023-05-07T11:26:04;26.70;99.90
4530;DHT22;2277;51.626;7.516;2023-05-07T11:28:33;26.80;99.90
4530;DHT22;2277;51.626;7.516;2023-05-07T11:31:02;26.70;99.90
4530;DHT22;2277;51.626;7.516;2023-05-07T11:33:28;26.30;99.90
4530;DHT22;2277;51.626;7.516;2023-05-07T11:35:54;26.00;99.90
4530;DHT22;2277;51.626;7.516;2023-05-07T11:38:20;26.20;99.90
4530;DHT22;2277;51.626;7.516;2023-05-07T11:40:54;26.40;99.90
4530;DHT22;2277;51.626;7.516;2023-05-07T11:43:20;26.60;99.90
4530;DHT22;2277;51.626;7.516;2023-05-07T11:45:46;26.80;99.90
4530;DHT22;2277;51.626;7.516;2023-05-07T11:48:13;26.70;99.90
4530;DHT22;2277;51.626;7.516;2023-05-07T11:50:51;27.00;99.90
4530;DHT22;2277;51.626;7.516;2023-05-07T11:53:18;27.20;99.90
4530;DHT22;2277;51.626;7.516;2023-05-07T11:55:44;26.80;99.90
4530;DHT22;2277;51.626;7.516;2023-05-07T11:58:12;26.20;99.90
4530;DHT22;2277;51.626;7.516;2023-05-07T12:00:37;26.20;99.90
4530;DHT22;2277;51.626;7.516;2023-05-07T12:03:04;26.60;99.90
4530;DHT22;2277;51.626;7.516;2023-05-07T12:05:30;27.00;99.90
4530;DHT22;2277;51.626;7.516;2023-05-07T12:07:57;27.10;99.90
4530;DHT22;2277;51.626;7.516;2023-05-07T12:10:23;26.80;99.90
4530;DHT22;2277;51.626;7.516;2023-05-07T12:12:50;26.50;99.90
4530;DHT22;2277;51.626;7.516;2023-05-07T12:15:16;26.60;99.90
4530;DHT22;2277;51.626;7.516;2023-05-07T12:17:42;26.60;99.90
4530;DHT22;2277;51.626;7.516;2023-05-07T12:20:08;27.00;99.90
4530;DHT22;2277;51.626;7.516;2023-05-07T12:22:35;27.10;99.90
4530;DHT22;2277;51.626;7.516;2023-05-07T12:25:01;27.30;99.90
4530;DHT22;2277;51.626;7.516;2023-05-07T12:27:27;27.10;99.90
4530;DHT22;2277;51.626;7.516;2023-05-07T12:29:53;27.30;99.90
4530;DHT22;2277;51.626;7.516;2023-05-07T12:32:21;27.30;99.90
4530;DHT22;2277;51.626;7.516;2023-05-07T12:34:50;27.30;99.90
4530;DHT22;2277;51.626;7.516;2023-05-07T12:37:16;27.10;99.90
4530;DHT22;2277;51.626;7.516;2023-05-07T12:39:47;26.70;99.90
4530;DHT22;2277;51.626;7.516;2023-05-07T12:42:15;26.30;99.90
4530;DHT22;2277;51.626;7.516;2023-05-07T12:44:43;26.00;99.90
4530;DHT22;2277;51.626;7.516;2023-05-07T12:47:10;26.20;99.90
4530;DHT22;2277;51.626;7.516;2023-05-07T12:49:36;26.40;99.90
4530;DHT22;2277;51.626;7.516;2023-05-07T12:52:05;26.20;99.90
4530;DHT22;2277;51.626;7.516;2023-05-07T12:54:33;25.50;99.90
4530;DHT22;2277;51.626;7.516;2023-05-07T12:57:06;25.30;99.90
4530;DHT22;2277;51.626;7.516;2023-05-07T12:59:42;25.00;99.90
4530;DHT22;2277;51.626;7.516;2023-05-07T13:02:08;24.80;99.90
4530;DHT22;2277;51.626;7.516;2023-05-07T13:04:34;24.60;99.90
4530;DHT22;2277;51.626;7.516;2023-05-07T13:07:01;24.40;99.90
4530;DHT22;2277;51.626;7.516;2023-05-07T13:09:26;24.20;99.90
4530;DHT22;2277;51.626;7.516;2023-05-07T13:11:55;24.30;99.90
4530;DHT22;2277;51.626;7.516;2023-05-07T13:14:21;24.20;99.90
4530;DHT22;2277;51.626;7.516;2023-05-07T13:16:49;24.10;99.90
4530;DHT22;2277;51.626;7.516;2023-05-07T13:19:15;24.00;99.90
4530;DHT22;2277;51.626;7.516;2023-05-07T13:21:41;24.00;99.90
4530;DHT22;2277;51.626;7.516;2023-05-07T13:24:07;24.20;99.90
4530;DHT22;2277;51.626;7.516;2023-05-07T13:26:32;24.20;99.90
4530;DHT22;2277;51.626;7.516;2023-05-07T13:28:58;24.20;99.90
4530;DHT22;2277;51.626;7.516;2023-05-07T13:31:24;24.10;99.90
4530;DHT22;2277;51.626;7.516;2023-05-07T13:33:50;24.10;99.90
4530;DHT22;2277;51.626;7.516;2023-05-07T13:36:16;24.10;99.90
4530;DHT22;2277;51.626;7.516;2023-05-07T13:38:41;24.10;99.90
4530;DHT22;2277;51.626;7.516;2023-05-07T13:41:07;23.90;99.90
4530;DHT22;2277;51.626;7.516;2023-05-07T13:43:32;23.70;99.90
4530;DHT22;2277;51.626;7.516;2023-05-07T13:45:59;23.50;99.90
4530;DHT22;2277;51.626;7.516;2023-05-07T13:48:25;23.60;99.90
4530;DHT22;2277;51.626;7.516;2023-05-07T13:50:51;23.80;99.90
4530;DHT22;2277;51.626;7.516;2023-05-07T13:53:17;23.90;99.90
4530;DHT22;2277;51.626;7.516;2023-05-07T13:55:44;23.90;99.90
4530;DHT22;2277;51.626;7.516;2023-05-07T13:58:10;23.90;99.90
4530;DHT22;2277;51.626;7.516;2023-05-07T14:00:35;23.90;99.90
4530;DHT22;2277;51.626;7.516;2023-05-07T14:03:01;23.80;99.90
4530;DHT22;2277;51.626;7.516;2023-05-07T14:05:26;23.90;99.90
4530;DHT22;2277;51.626;7.516;2023-05-07T14:08:02;24.00;99.90
4530;DHT22;2277;51.626;7.516;2023-05-07T14:10:29;23.90;99.90
4530;DHT22;2277;51.626;7.516;2023-05-07T14:12:55;23.90;99.90
4530;DHT22;2277;51.626;7.516;2023-05-07T14:15:21;23.90;99.90
4530;DHT22;2277;51.626;7.516;2023-05-07T14:17:46;23.80;99.90
4530;DHT22;2277;51.626;7.516;2023-05-07T14:20:12;23.80;99.90
4530;DHT22;2277;51.626;7.516;2023-05-07T14:22:38;23.80;99.90
4530;DHT22;2277;51.626;7.516;2023-05-07T14:25:04;23.80;99.90
4530;DHT22;2277;51.626;7.516;2023-05-07T14:27:29;23.80;99.90
4530;DHT22;2277;51.626;7.516;2023-05-07T14:29:55;23.70;99.90
4530;DHT22;2277;51.626;7.516;2023-05-07T14:32:21;23.50;99.90
4530;DHT22;2277;51.626;7.516;2023-05-07T14:34:47;23.30;99.90
4530;DHT22;2277;51.626;7.516;2023-05-07T14:37:12;23.00;99.90
4530;DHT22;2277;51.626;7.516;2023-05-07T14:39:38;23.00;99.90
4530;DHT22;2277;51.626;7.516;2023-05-07T14:42:04;23.10;99.90
4530;DHT22;2277;51.626;7.516;2023-05-07T14:44:30;23.00;99.90
4530;DHT22;2277;51.626;7.516;2023-05-07T14:46:56;23.10;99.90
4530;DHT22;2277;51.626;7.516;2023-05-07T14:49:22;23.20;99.90
4530;DHT22;2277;51.626;7.516;2023-05-07T14:51:48;23.20;99.90
4530;DHT22;2277;51.626;7.516;2023-05-07T14:54:14;23.00;99.90
4530;DHT22;2277;51.626;7.516;2023-05-07T14:56:40;22.90;99.90
4530;DHT22;2277;51.626;7.516;2023-05-07T14:59:06;22.90;99.90
4530;DHT22;2277;51.626;7.516;2023-05-07T15:01:34;23.00;99.90
4530;DHT22;2277;51.626;7.516;2023-05-07T15:03:59;22.90;99.90
4530;DHT22;2277;51.626;7.516;2023-05-07T15:06:25;22.90;99.90
4530;DHT22;2277;51.626;7.516;2023-05-07T15:08:52;22.80;99.90
4530;DHT22;2277;51.626;7.516;2023-05-07T15:11:17;23.00;99.90
4530;DHT22;2277;51.626;7.516;2023-05-07T15:13:43;23.10;99.90
4530;DHT22;2277;51.626;7.516;2023-05-07T15:16:08;23.10;99.90
4530;DHT22;2277;51.626;7.516;2023-05-07T15:18:34;23.20;99.90
4530;DHT22;2277;51.626;7.516;2023-05-07T15:21:00;22.90;99.90
4530;DHT22;2277;51.626;7.516;2023-05-07T15:23:25;22.90;99.90
4530;DHT22;2277;51.626;7.516;2023-05-07T15:25:52;22.90;99.90
4530;DHT22;2277;51.626;7.516;2023-05-07T15:28:17;22.80;99.90
4530;DHT22;2277;51.626;7.516;2023-05-07T15:30:43;22.70;99.90
4530;DHT22;2277;51.626;7.516;2023-05-07T15:33:08;22.60;99.90
4530;DHT22;2277;51.626;7.516;2023-05-07T15:35:34;22.70;99.90
4530;DHT22;2277;51.626;7.516;2023-05-07T15:38:00;22.60;99.90
4530;DHT22;2277;51.626;7.516;2023-05-07T15:40:29;22.60;99.90
4530;DHT22;2277;51.626;7.516;2023-05-07T15:42:55;22.60;99.90
4530;DHT22;2277;51.626;7.516;2023-05-07T15:45:22;22.40;99.90
4530;DHT22;2277;51.626;7.516;2023-05-07T15:47:48;22.40;99.90
4530;DHT22;2277;51.626;7.516;2023-05-07T15:50:14;22.30;99.90
4530;DHT22;2277;51.626;7.516;2023-05-07T15:52:39;22.40;99.90
4530;DHT22;2277;51.626;7.516;2023-05-07T15:55:06;22.50;99.90
4530;DHT22;2277;51.626;7.516;2023-05-07T15:57:34;22.50;99.90
4530;DHT22;2277;51.626;7.516;2023-05-07T15:59:59;22.40;99.90
4530;DHT22;2277;51.626;7.516;2023-05-07T16:02:25;22.20;99.90
4530;DHT22;2277;51.626;7.516;2023-05-07T16:04:51;22.20;99.90
4530;DHT22;2277;51.626;7.516;2023-05-07T16:07:16;22.20;99.90